Terminal Aerodrome Forecast
Issued by NWS

Home | Current Version | Previous Version | Text Only | Print | Product List | Glossary On
Versions: 1 2 3 4 5 6 7 8 9 10 11 12 13 14 15 16 17 18 19 20 21 22 23 24 25 26 27 28 29 30 31 32 33 34 35 36 37 38 39 40 41 42 43 44 45 46 47 48 49 50
000
FTUS42 KRAH 261128
TAFRWI
TAF
KRWI 261128Z 2612/2712 02015G28KT 3SM RA BR OVC009
      TEMPO 2612/2614 1 1/2SM +RA BR OVC004
     FM261400 36015G27KT 6SM -RA BR OVC012
     FM262000 31012G22KT P6SM OVC022
     FM270100 29006KT P6SM SCT022
     FM270900 17005KT P6SM OVC035=

USA.gov is the U.S. government's official web portal to all federal, state and local government web resources and services.